NCAR-RAP Real-Time Weather Data

Output produced by METARs form (12 August 2020  18:56 UTC)
found at http://weather.rap.ucar.edu/surface/
 
KSBY 121821Z 00000KT 10SM -RA FEW080 OVC110 24/22 A3000 RMK AO2 LTG DSNT SW RAB00 TSE19 PRESFR P0000 T02440217
KSBY 121754Z 26009KT 10SM TS BKN032 BKN041 OVC100 25/21 A3002 RMK AO2 WSHFT 1719 LTG DSNT SW TSB38 SLP167 T02500211 10328 20250 55004
KSBY 121744Z 25010G20KT 10SM TS BKN032 BKN043 BKN060 26/21 A3003 RMK AO2 WSHFT 1719 LTG DSNT SW TSB38 T02610211
KSBY 121733Z 24014G20KT 10SM VCTS SCT031 BKN060 BKN080 28/22 A3002 RMK AO2 WSHFT 1719 LTG DSNT SW T02780222
KSBY 121654Z 13008KT 10SM SCT033 BKN040 BKN060 32/24 A3001 RMK AO2 LTG DSNT SW SLP163 T03170239
KSBY 121554Z 00000KT 10SM SCT029 32/24 A3002 RMK AO2 SLP168 T03220239
KSBY 121516Z 10004KT 10SM FEW023 32/24 A3003 RMK AO2 T03170239
KSBY 121454Z 19004KT 10SM BKN024 BKN034 BKN050 30/24 A3003 RMK AO2 SLP170 T03000239 58001
KSBY 121354Z 00000KT 10SM CLR 30/24 A3003 RMK AO2 SLP170 T03000244
KSBY 121254Z 23004KT 10SM CLR 28/24 A3004 RMK AO2 SLP172 T02780244
KSBY 121154Z 19003KT 8SM CLR 26/24 A3003 RMK AO2 SLP172 T02560239 10256 20233 51014
KSBY 121054Z 00000KT 7SM CLR 24/22 A3002 RMK AO2 SLP169 T02390222
KSBY 120954Z AUTO 00000KT 7SM CLR 24/23 A3001 RMK AO2 SLP161 T02390228 TSNO
KSBY 120854Z AUTO 00000KT 8SM CLR 24/22 A2999 RMK AO2 SLP157 T02390222 53001
KSBY 120754Z AUTO 00000KT 9SM CLR 24/23 A2998 RMK AO2 SLP154 T02440228
KSBY 120654Z AUTO 00000KT 8SM CLR 24/23 A2999 RMK AO2 SLP156 T02440228
KSBY 120554Z AUTO 15003KT 8SM CLR 25/23 A2999 RMK AO2 SLP155 T02500228 10278 20244 50004
KSBY 120454Z AUTO 17004KT 8SM CLR 25/23 A2999 RMK AO2 SLP156 T02500233 403280228
KSBY 120354Z AUTO 00000KT 10SM CLR 25/23 A2998 RMK AO2 SLP154 T02500233
KSBY 120254Z AUTO 18004KT 10SM CLR 26/23 A2998 RMK AO2 SLP151 T02560233 53006
KSBY 120154Z 16007KT 10SM CLR 26/23 A2997 RMK AO2 SLP149 T02560233
KSBY 120054Z 15006KT 10SM CLR 27/24 A2995 RMK AO2 SLP144 T02670239
KSBY 112354Z 16006KT 10SM CLR 28/24 A2996 RMK AO2 SLP146 T02780239 10328 20278 53005
KSBY 112254Z 17007KT 10SM CLR 29/23 A2995 RMK AO2 SLP142 T02890233
KSBY 112154Z 17008KT 10SM CLR 31/22 A2994 RMK AO2 SLP139 T03060222